Time;durP1;ratioP1;P1;durP2;ratioP2;P2;SDS_P1;SDS_P2;PMS_P1;PMS_P2;Temp;Humidity;BMP_temperature;BMP_pressure;BME280_temperature;BME280_humidity;BME280_pressure;Samples;Min_cycle;Max_cycle;Signal;HPM_P1;HPM_P2
2021/04/10 00:00:54;;;;;;;13.97;5.20;;;4.90;89.90;;;;;;5053020;28;20174;-86
2021/04/10 00:03:20;;;;;;;16.47;5.20;;;4.90;89.70;;;;;;5035208;28;20700;-86
2021/04/10 00:05:46;;;;;;;17.83;5.17;;;4.90;89.60;;;;;;5035063;28;20658;-86
2021/04/10 00:08:11;;;;;;;16.43;6.03;;;4.80;89.70;;;;;;5035072;28;20274;-86
2021/04/10 00:10:37;;;;;;;12.47;5.03;;;4.80;89.80;;;;;;5035036;28;20227;-86
2021/04/10 00:13:03;;;;;;;13.97;4.77;;;4.80;89.90;;;;;;5035069;28;20177;-86
2021/04/10 00:15:30;;;;;;;13.97;4.70;;;4.80;89.90;;;;;;5035040;28;20246;-86
2021/04/10 00:17:56;;;;;;;16.73;4.97;;;4.80;89.90;;;;;;5052700;28;20698;-86
2021/04/10 00:20:23;;;;;;;15.10;4.57;;;4.80;89.90;;;;;;5034935;28;20188;-86
2021/04/10 00:22:49;;;;;;;15.40;4.30;;;4.90;89.70;;;;;;5054578;28;20172;-87
2021/04/10 00:25:16;;;;;;;11.93;4.53;;;4.80;89.60;;;;;;5038772;28;20581;-86
2021/04/10 00:27:42;;;;;;;13.90;4.33;;;4.80;89.50;;;;;;5038688;28;20200;-86
2021/04/10 00:30:11;;;;;;;14.57;4.50;;;4.80;89.40;;;;;;5056706;28;20180;-86
2021/04/10 00:32:36;;;;;;;21.27;5.43;;;4.70;89.50;;;;;;5056337;28;20181;-86
2021/04/10 00:35:03;;;;;;;20.70;4.80;;;4.70;89.70;;;;;;5056598;28;20177;-86
2021/04/10 00:37:28;;;;;;;16.63;4.93;;;4.60;89.70;;;;;;5056526;28;20639;-86
2021/04/10 00:39:54;;;;;;;15.53;4.70;;;4.70;89.80;;;;;;5039044;28;20236;-86
2021/04/10 00:42:20;;;;;;;15.80;4.47;;;4.60;89.80;;;;;;5038597;28;20272;-86
2021/04/10 00:44:45;;;;;;;12.30;5.43;;;4.60;89.90;;;;;;5056434;28;20274;-86
2021/04/10 00:47:11;;;;;;;16.43;5.07;;;4.60;90.10;;;;;;5056242;28;20572;-86
2021/04/10 00:49:37;;;;;;;17.57;4.97;;;4.60;90.10;;;;;;5038527;28;20173;-86
2021/04/10 00:52:06;;;;;;;15.53;5.10;;;4.70;90.10;;;;;;5056245;28;20260;-86
2021/04/10 00:54:32;;;;;;;17.80;5.97;;;4.60;90.10;;;;;;5056613;28;20173;-86
2021/04/10 00:56:58;;;;;;;14.93;4.93;;;4.70;90.00;;;;;;5038301;28;20176;-86
2021/04/10 00:59:23;;;;;;;15.97;5.40;;;4.60;90.00;;;;;;5038194;28;20199;-86
2021/04/10 01:01:49;;;;;;;12.63;4.83;;;4.60;89.90;;;;;;5038218;28;20184;-86
2021/04/10 01:04:15;;;;;;;12.37;4.53;;;4.70;89.80;;;;;;5055978;28;20381;-86
2021/04/10 01:06:41;;;;;;;18.70;4.73;;;4.70;89.70;;;;;;5056087;28;20174;-86
2021/04/10 01:09:08;;;;;;;10.67;4.50;;;4.60;89.70;;;;;;5038104;28;20192;-86
2021/04/10 01:11:45;;;;;;;15.03;6.17;;;4.70;89.60;;;;;;5056253;28;20164;-86
2021/04/10 01:14:23;;;;;;;9.33;4.63;;;4.70;89.50;;;;;;5038126;28;20178;-86
2021/04/10 01:16:56;;;;;;;13.43;4.43;;;4.60;89.40;;;;;;5038019;28;20173;-86
2021/04/10 01:19:50;;;;;;;14.97;4.33;;;4.60;89.30;;;;;;5038029;28;20200;-86
2021/04/10 01:22:42;;;;;;;9.63;3.93;;;4.70;89.20;;;;;;5007908;28;20189;-86
2021/04/10 01:25:16;;;;;;;13.57;4.40;;;4.60;89.00;;;;;;5055596;28;20195;-86
2021/04/10 01:27:57;;;;;;;8.73;4.30;;;4.60;88.90;;;;;;5055686;28;20665;-86
2021/04/10 01:30:24;;;;;;;15.50;4.40;;;4.60;88.80;;;;;;5037848;28;20164;-86
2021/04/10 01:32:49;;;;;;;15.60;4.73;;;4.60;88.70;;;;;;5055542;28;20165;-86
2021/04/10 01:35:17;;;;;;;17.90;5.03;;;4.60;88.70;;;;;;5054481;28;20606;-86
2021/04/10 01:38:04;;;;;;;11.57;4.83;;;4.50;88.70;;;;;;5055453;28;20687;-86
2021/04/10 01:40:32;;;;;;;16.27;4.47;;;4.50;88.80;;;;;;5037485;28;20185;-86
2021/04/10 01:42:59;;;;;;;14.27;5.60;;;4.50;88.80;;;;;;5037519;28;20275;-86
2021/04/10 01:45:27;;;;;;;15.07;4.37;;;4.40;88.80;;;;;;5055237;28;20192;-86
2021/04/10 01:47:56;;;;;;;16.20;4.53;;;4.50;88.80;;;;;;5055271;28;20319;-86
2021/04/10 01:50:23;;;;;;;9.60;4.07;;;4.50;88.80;;;;;;5037472;28;20178;-86
2021/04/10 01:52:50;;;;;;;10.17;4.17;;;4.50;88.90;;;;;;5055177;28;20176;-86
2021/04/10 01:55:17;;;;;;;18.73;5.17;;;4.50;88.80;;;;;;5055334;28;20180;-87
2021/04/10 01:57:43;;;;;;;17.10;4.27;;;4.40;88.80;;;;;;5037246;28;20619;-86
2021/04/10 02:00:10;;;;;;;17.27;5.37;;;4.50;88.90;;;;;;5037173;28;20653;-87
2021/04/10 02:02:41;;;;;;;13.30;4.70;;;4.50;88.90;;;;;;5037128;28;20177;-86
2021/04/10 02:05:10;;;;;;;14.20;3.90;;;4.50;88.80;;;;;;5037065;28;20210;-86
2021/04/10 02:07:40;;;;;;;16.07;4.20;;;4.50;88.80;;;;;;5054936;28;20629;-86
2021/04/10 02:10:08;;;;;;;22.37;5.17;;;4.50;88.80;;;;;;5036939;28;20183;-86
2021/04/10 02:12:34;;;;;;;21.93;5.07;;;4.50;88.70;;;;;;5054821;28;20223;-86
2021/04/10 02:15:00;;;;;;;16.83;4.30;;;4.50;88.60;;;;;;5036873;28;20180;-86
2021/04/10 02:17:28;;;;;;;11.97;3.87;;;4.50;88.60;;;;;;5054681;28;20258;-87
2021/04/10 02:19:54;;;;;;;10.23;3.50;;;4.50;88.60;;;;;;5037639;28;20181;-86
2021/04/10 02:22:22;;;;;;;18.77;4.37;;;4.50;88.40;;;;;;5036798;28;20187;-86
2021/04/10 02:24:48;;;;;;;20.27;3.40;;;4.50;88.30;;;;;;5054593;28;20261;-86
2021/04/10 02:27:14;;;;;;;19.37;4.17;;;4.50;88.40;;;;;;5036551;28;20660;-86
2021/04/10 02:29:41;;;;;;;16.17;3.47;;;4.50;88.40;;;;;;5054465;28;20274;-86
2021/04/10 02:32:12;;;;;;;10.67;3.83;;;4.40;88.30;;;;;;5036632;28;20545;-86
2021/04/10 02:34:49;;;;;;;17.30;3.57;;;4.50;87.80;;;;;;5054398;28;20238;-86
2021/04/10 02:37:16;;;;;;;18.10;3.73;;;4.50;87.90;;;;;;5036993;28;20187;-86
2021/04/10 02:39:43;;;;;;;16.33;4.10;;;4.50;87.90;;;;;;5054294;28;20188;-86
2021/04/10 02:42:12;;;;;;;17.57;3.23;;;4.50;87.90;;;;;;5036301;28;20187;-86
2021/04/10 02:44:44;;;;;;;12.90;3.47;;;4.50;87.90;;;;;;5036232;28;20269;-86
2021/04/10 02:47:11;;;;;;;17.20;3.83;;;4.50;87.70;;;;;;5036162;28;20202;-86
2021/04/10 02:49:41;;;;;;;18.57;3.83;;;4.50;87.50;;;;;;5054121;28;20181;-86
2021/04/10 02:52:08;;;;;;;16.03;3.80;;;4.40;87.50;;;;;;5054345;28;20174;-86
2021/04/10 02:54:45;;;;;;;16.10;3.30;;;4.40;87.50;;;;;;5036051;28;20649;-86
2021/04/10 02:57:15;;;;;;;15.63;3.37;;;4.50;87.40;;;;;;5053988;28;20262;-86
2021/04/10 02:59:45;;;;;;;17.90;3.30;;;4.50;87.00;;;;;;5054202;28;20529;-86
2021/04/10 03:02:12;;;;;;;25.40;4.20;;;4.50;86.70;;;;;;5036109;28;20196;-86
2021/04/10 03:04:41;;;;;;;14.50;3.53;;;4.50;86.50;;;;;;5035963;28;20223;-86
2021/04/10 03:07:08;;;;;;;17.43;3.33;;;4.40;86.50;;;;;;5053712;28;20175;-86
2021/04/10 03:09:38;;;;;;;20.07;3.60;;;4.40;86.60;;;;;;5053742;28;20169;-86
2021/04/10 03:12:04;;;;;;;18.30;4.77;;;4.40;86.30;;;;;;5053670;28;20182;-86
2021/04/10 03:14:31;;;;;;;15.37;3.87;;;4.40;86.20;;;;;;5053956;28;20164;-86
2021/04/10 03:16:58;;;;;;;13.90;3.13;;;4.40;86.30;;;;;;5035788;28;20180;-86
2021/04/10 03:19:25;;;;;;;15.30;3.17;;;4.40;86.40;;;;;;5053568;28;20275;-86
2021/04/10 03:21:51;;;;;;;24.87;3.60;;;4.30;86.50;;;;;;5053804;28;20199;-86
2021/04/10 03:24:17;;;;;;;13.47;3.43;;;4.30;86.60;;;;;;5035623;28;20240;-86
2021/04/10 03:26:42;;;;;;;14.13;3.53;;;4.30;86.60;;;;;;5053474;28;20219;-86
2021/04/10 03:29:10;;;;;;;12.57;2.77;;;4.30;86.70;;;;;;5053368;28;20665;-86
2021/04/10 03:31:38;;;;;;;16.73;3.30;;;4.30;86.70;;;;;;5053416;28;20201;-86
2021/04/10 03:34:05;;;;;;;17.37;2.73;;;4.30;86.80;;;;;;5035487;28;20181;-86
2021/04/10 03:36:32;;;;;;;13.43;2.70;;;4.30;86.70;;;;;;5053376;28;20173;-86
2021/04/10 03:38:57;;;;;;;15.37;3.30;;;4.30;86.60;;;;;;5053236;28;20208;-86
2021/04/10 03:41:23;;;;;;;11.23;2.87;;;4.30;86.40;;;;;;5035363;28;20179;-86
2021/04/10 03:43:49;;;;;;;22.13;2.97;;;4.20;86.60;;;;;;5053175;28;20200;-86
2021/04/10 03:46:15;;;;;;;15.87;3.30;;;4.20;86.70;;;;;;5035422;28;20221;-86
2021/04/10 03:48:41;;;;;;;13.60;3.00;;;4.20;86.70;;;;;;5053147;28;20188;-86
2021/04/10 03:51:07;;;;;;;13.20;3.03;;;4.20;86.70;;;;;;5035289;28;20720;-86
2021/04/10 03:53:32;;;;;;;14.47;2.73;;;4.20;86.80;;;;;;5053104;28;20164;-86
2021/04/10 03:55:58;;;;;;;21.77;4.53;;;4.20;86.80;;;;;;5035257;28;20264;-86
2021/04/10 03:58:24;;;;;;;17.70;3.23;;;4.10;86.80;;;;;;5034721;28;20214;-86
2021/04/10 04:00:49;;;;;;;16.43;4.67;;;4.10;86.80;;;;;;5053172;28;20180;-86
2021/04/10 04:03:15;;;;;;;16.60;2.93;;;4.00;86.90;;;;;;5053051;28;20172;-86
2021/04/10 04:05:41;;;;;;;19.27;3.13;;;4.00;87.00;;;;;;5052937;28;20200;-86
2021/04/10 04:08:06;;;;;;;18.37;3.40;;;4.00;87.00;;;;;;5052935;28;20188;-86
2021/04/10 04:10:32;;;;;;;18.77;3.57;;;4.00;87.00;;;;;;5035237;28;20199;-86
2021/04/10 04:12:58;;;;;;;15.87;2.90;;;4.10;87.00;;;;;;5053059;28;20577;-86
2021/04/10 04:15:23;;;;;;;24.53;4.43;;;4.10;87.00;;;;;;5035175;28;20652;-86
2021/04/10 04:17:49;;;;;;;13.60;3.30;;;4.00;87.00;;;;;;5052874;28;20187;-86
2021/04/10 04:20:15;;;;;;;13.07;3.47;;;4.00;86.90;;;;;;5052963;28;20258;-86
2021/04/10 04:22:41;;;;;;;15.77;4.30;;;4.00;86.80;;;;;;5034976;28;20206;-86
2021/04/10 04:25:07;;;;;;;11.83;2.87;;;3.90;86.80;;;;;;5052696;28;20200;-86
2021/04/10 04:27:35;;;;;;;11.40;3.23;;;4.00;86.90;;;;;;5035055;28;20279;-86
2021/04/10 04:30:02;;;;;;;11.20;3.57;;;4.00;86.90;;;;;;5052905;28;20218;-86
2021/04/10 04:32:28;;;;;;;12.37;3.23;;;4.00;86.80;;;;;;5052762;28;20660;-86
2021/04/10 04:34:53;;;;;;;8.33;2.80;;;4.00;86.80;;;;;;5052806;28;20172;-86
2021/04/10 04:37:19;;;;;;;15.23;3.30;;;4.00;86.80;;;;;;5034775;28;20701;-86
2021/04/10 04:39:45;;;;;;;15.50;3.77;;;4.00;86.60;;;;;;5052561;28;20188;-86
2021/04/10 04:42:10;;;;;;;13.77;3.13;;;4.00;86.40;;;;;;5034818;28;20176;-86
2021/04/10 04:44:36;;;;;;;10.97;3.10;;;4.00;86.20;;;;;;5034780;28;20552;-86
2021/04/10 04:47:02;;;;;;;17.13;3.57;;;4.00;86.10;;;;;;5052685;28;20605;-86
2021/04/10 04:49:27;;;;;;;12.30;2.47;;;4.00;86.00;;;;;;5052471;28;20196;-86
2021/04/10 04:51:54;;;;;;;10.17;2.77;;;4.00;86.00;;;;;;5052686;28;20192;-86
2021/04/10 04:54:20;;;;;;;11.20;2.50;;;3.90;85.90;;;;;;5034910;28;20202;-86
2021/04/10 04:56:47;;;;;;;15.00;2.80;;;3.90;85.90;;;;;;5052527;28;20553;-86
2021/04/10 04:59:12;;;;;;;11.23;3.00;;;3.90;85.90;;;;;;5052462;28;20239;-86
2021/04/10 05:01:38;;;;;;;11.43;2.87;;;3.90;85.90;;;;;;5034710;28;20236;-86
2021/04/10 05:04:04;;;;;;;11.20;2.87;;;3.90;85.80;;;;;;5052482;28;20200;-86
2021/04/10 05:06:29;;;;;;;12.07;2.87;;;3.90;85.80;;;;;;5034669;28;20609;-86
2021/04/10 05:08:55;;;;;;;11.17;2.90;;;3.90;85.80;;;;;;5034577;28;20369;-86
2021/04/10 05:11:20;;;;;;;12.03;3.00;;;3.90;85.70;;;;;;5055876;28;20558;-86
2021/04/10 05:13:46;;;;;;;10.03;2.80;;;3.90;85.60;;;;;;5038073;28;20176;-86
2021/04/10 05:16:12;;;;;;;9.33;2.43;;;3.90;85.50;;;;;;5038078;28;20237;-86
2021/04/10 05:18:37;;;;;;;11.53;2.90;;;3.90;85.50;;;;;;5037915;28;20611;-86
2021/04/10 05:21:03;;;;;;;8.70;2.70;;;3.90;85.50;;;;;;5037947;28;20175;-86
2021/04/10 05:23:29;;;;;;;12.10;2.93;;;3.90;85.60;;;;;;5037863;28;20172;-86
2021/04/10 05:25:54;;;;;;;7.23;2.50;;;3.90;85.70;;;;;;5037807;28;20211;-86
2021/04/10 05:28:20;;;;;;;16.93;3.10;;;3.80;85.80;;;;;;5037779;28;20196;-86
2021/04/10 05:30:46;;;;;;;8.03;2.77;;;3.80;86.30;;;;;;5037769;28;20262;-86
2021/04/10 05:33:12;;;;;;;9.97;2.67;;;3.80;86.80;;;;;;5055616;28;20593;-86
2021/04/10 05:35:38;;;;;;;13.00;2.50;;;3.80;87.10;;;;;;5037655;28;20178;-86
2021/04/10 05:38:04;;;;;;;15.33;2.80;;;3.70;87.40;;;;;;5037387;28;20206;-86
2021/04/10 05:40:30;;;;;;;13.87;2.73;;;3.70;87.50;;;;;;5037681;28;20215;-86
2021/04/10 05:42:56;;;;;;;14.87;2.90;;;3.80;87.60;;;;;;5055370;28;20187;-86
2021/04/10 05:45:22;;;;;;;13.13;3.10;;;3.70;87.70;;;;;;5055646;28;20604;-86
2021/04/10 05:47:47;;;;;;;16.10;3.17;;;3.80;87.70;;;;;;5055527;28;20192;-86
2021/04/10 05:50:13;;;;;;;20.87;3.83;;;3.80;87.90;;;;;;5055322;28;20539;-86
2021/04/10 05:52:39;;;;;;;8.37;2.60;;;3.80;87.90;;;;;;5055254;28;20171;-86
2021/04/10 05:55:06;;;;;;;14.67;3.13;;;3.80;87.80;;;;;;5037319;28;20291;-86
2021/04/10 05:57:32;;;;;;;9.27;2.60;;;3.90;87.80;;;;;;5037249;28;20199;-86
2021/04/10 05:59:58;;;;;;;11.07;2.87;;;4.00;87.80;;;;;;5037350;28;20172;-86
2021/04/10 06:02:23;;;;;;;13.97;2.73;;;4.00;87.80;;;;;;5037252;28;20179;-86
2021/04/10 06:04:51;;;;;;;12.33;2.80;;;4.00;87.70;;;;;;5054876;28;20207;-86
2021/04/10 06:07:16;;;;;;;17.13;4.00;;;4.10;87.70;;;;;;5036981;28;20214;-86
2021/04/10 06:09:42;;;;;;;13.37;3.20;;;4.00;87.10;;;;;;5054988;28;20196;-86
2021/04/10 06:12:08;;;;;;;7.03;2.63;;;4.00;86.60;;;;;;5037076;28;20172;-86
2021/04/10 06:14:33;;;;;;;13.83;2.70;;;4.00;86.60;;;;;;5037025;28;20176;-86
2021/04/10 06:16:59;;;;;;;13.73;3.17;;;4.00;86.40;;;;;;5054847;28;20182;-86
2021/04/10 06:19:25;;;;;;;19.10;3.60;;;4.10;86.30;;;;;;5037004;28;20276;-86
2021/04/10 06:21:50;;;;;;;17.23;2.97;;;4.10;86.00;;;;;;5054500;28;20218;-86
2021/04/10 06:24:16;;;;;;;10.77;3.47;;;4.10;85.80;;;;;;5037131;28;20707;-86
2021/04/10 06:26:43;;;;;;;24.07;4.30;;;4.10;85.80;;;;;;5054661;28;20237;-86
2021/04/10 06:29:10;;;;;;;9.93;3.50;;;4.20;85.70;;;;;;5036590;28;20188;-86
2021/04/10 06:31:35;;;;;;;11.80;3.27;;;4.30;86.30;;;;;;5054462;28;20251;-86
2021/04/10 06:34:01;;;;;;;9.10;3.10;;;4.40;85.50;;;;;;5054478;28;20263;-86
2021/04/10 06:36:27;;;;;;;10.23;3.03;;;4.40;85.20;;;;;;5054326;28;20177;-86
2021/04/10 06:38:54;;;;;;;17.23;2.90;;;4.50;84.90;;;;;;5036442;28;20215;-86
2021/04/10 06:41:20;;;;;;;17.10;3.60;;;4.50;84.40;;;;;;5054552;28;20199;-86
2021/04/10 06:43:46;;;;;;;14.93;3.10;;;4.50;84.30;;;;;;5054231;28;20645;-86
2021/04/10 06:46:13;;;;;;;12.90;2.90;;;4.50;82.90;;;;;;5036622;28;20755;-86
2021/04/10 06:48:40;;;;;;;11.93;2.93;;;4.60;82.30;;;;;;5036314;28;20196;-86
2021/04/10 06:51:07;;;;;;;12.50;3.27;;;4.50;82.10;;;;;;5036281;28;20229;-86
2021/04/10 06:53:38;;;;;;;21.27;3.20;;;4.60;82.50;;;;;;5054093;28;20264;-86
2021/04/10 06:56:06;;;;;;;17.50;2.90;;;4.60;83.00;;;;;;5036161;28;20271;-86
2021/04/10 06:58:40;;;;;;;14.80;3.27;;;4.70;82.30;;;;;;5053934;28;20203;-86
2021/04/10 07:01:07;;;;;;;15.40;3.53;;;4.80;82.30;;;;;;5053988;28;20263;-85
2021/04/10 07:03:33;;;;;;;13.43;3.30;;;4.80;81.40;;;;;;5053933;28;20176;-85
2021/04/10 07:05:59;;;;;;;16.47;3.13;;;4.80;80.70;;;;;;5053927;28;20737;-85
2021/04/10 07:08:24;;;;;;;14.43;3.47;;;4.90;81.40;;;;;;5036089;28;20199;-85
2021/04/10 07:10:51;;;;;;;10.53;3.43;;;4.90;81.30;;;;;;5053912;28;20199;-86
2021/04/10 07:13:17;;;;;;;21.07;4.00;;;4.90;78.50;;;;;;5053732;28;20186;-85
2021/04/10 07:15:43;;;;;;;16.30;2.93;;;4.90;77.30;;;;;;5053765;28;20180;-85
2021/04/10 07:18:08;;;;;;;17.50;3.53;;;4.90;78.30;;;;;;5053800;28;20200;-85
2021/04/10 07:20:36;;;;;;;9.27;2.33;;;5.00;78.00;;;;;;5053648;28;20172;-86
2021/04/10 07:23:12;;;;;;;13.60;3.37;;;5.10;78.50;;;;;;5035889;28;20187;-86
2021/04/10 07:25:43;;;;;;;9.63;2.67;;;5.20;76.50;;;;;;5035608;28;20204;-86
2021/04/10 07:28:30;;;;;;;9.47;2.53;;;5.20;76.30;;;;;;5053436;28;20183;-86
2021/04/10 07:30:58;;;;;;;17.40;3.03;;;5.20;75.30;;;;;;5053761;28;20164;-85
2021/04/10 07:33:25;;;;;;;11.23;3.00;;;5.20;74.40;;;;;;5052664;28;20175;-84
2021/04/10 07:35:50;;;;;;;11.97;3.13;;;5.30;75.50;;;;;;5035492;28;20278;-85
2021/04/10 07:38:45;;;;;;;14.67;3.70;;;5.40;73.20;;;;;;5035289;28;20244;-84
2021/04/10 07:41:13;;;;;;;19.63;2.80;;;5.40;74.00;;;;;;5036311;28;20192;-84
2021/04/10 07:43:41;;;;;;;15.40;3.00;;;5.50;72.50;;;;;;5053587;28;20177;-85
2021/04/10 07:46:20;;;;;;;11.43;2.93;;;5.40;71.90;;;;;;5035551;28;20259;-84
2021/04/10 07:49:04;;;;;;;16.50;2.83;;;5.40;68.90;;;;;;5035325;28;20197;-84
2021/04/10 07:51:32;;;;;;;15.77;3.03;;;5.40;71.60;;;;;;5053246;28;20240;-85
2021/04/10 07:53:59;;;;;;;17.63;3.27;;;5.50;72.10;;;;;;5053189;28;20171;-84
2021/04/10 07:56:25;;;;;;;9.03;2.23;;;5.50;69.80;;;;;;5053426;28;20183;-84
2021/04/10 07:58:51;;;;;;;10.40;3.07;;;5.50;69.90;;;;;;5035174;28;20339;-85
2021/04/10 08:01:17;;;;;;;10.73;2.67;;;5.60;69.90;;;;;;5035227;28;20271;-85
2021/04/10 08:03:43;;;;;;;11.63;2.73;;;5.70;69.10;;;;;;5035369;28;20653;-84
2021/04/10 08:06:09;;;;;;;10.77;2.67;;;5.70;69.80;;;;;;5053130;28;20536;-85
2021/04/10 08:08:54;;;;;;;11.90;2.83;;;5.80;70.10;;;;;;5035125;28;20193;-84
2021/04/10 08:11:31;;;;;;;10.30;2.47;;;5.80;69.00;;;;;;5053096;28;20653;-84
2021/04/10 08:13:59;;;;;;;14.10;2.40;;;5.70;66.60;;;;;;5035089;28;20637;-85
2021/04/10 08:16:25;;;;;;;17.03;2.30;;;5.90;69.00;;;;;;5052946;28;20229;-85
2021/04/10 08:18:56;;;;;;;15.00;3.03;;;5.90;67.80;;;;;;5052855;28;20190;-85
2021/04/10 08:21:32;;;;;;;10.97;2.70;;;5.80;67.40;;;;;;5034977;28;20168;-84
2021/04/10 08:23:59;;;;;;;9.90;2.43;;;5.80;66.60;;;;;;5052856;28;20222;-85
2021/04/10 08:26:25;;;;;;;6.40;2.20;;;5.90;68.00;;;;;;5035005;28;20177;-85
2021/04/10 08:28:51;;;;;;;13.73;2.63;;;6.10;69.20;;;;;;5052726;28;20193;-85
2021/04/10 08:31:18;;;;;;;10.57;2.67;;;6.20;67.50;;;;;;5034996;28;20173;-85
2021/04/10 08:33:44;;;;;;;16.03;2.30;;;6.30;67.40;;;;;;5052784;28;20173;-85
2021/04/10 08:36:11;;;;;;;10.97;2.40;;;6.20;64.60;;;;;;5052855;28;20173;-84
2021/04/10 08:38:41;;;;;;;14.23;2.93;;;6.00;64.30;;;;;;5052653;28;20692;-84
2021/04/10 08:41:08;;;;;;;16.27;2.83;;;6.00;64.10;;;;;;5052831;28;20184;-85
2021/04/10 08:43:37;;;;;;;15.63;2.63;;;6.00;66.30;;;;;;5035856;28;20173;-85
2021/04/10 08:46:05;;;;;;;10.10;2.33;;;6.00;65.20;;;;;;5038607;28;20262;-85
2021/04/10 08:48:33;;;;;;;11.13;2.60;;;6.10;65.20;;;;;;5056471;28;20188;-85
2021/04/10 08:51:01;;;;;;;6.67;2.60;;;6.00;62.20;;;;;;5038604;28;20181;-85
2021/04/10 08:53:33;;;;;;;19.07;2.87;;;6.00;64.80;;;;;;5056699;28;20668;-85
2021/04/10 08:55:59;;;;;;;12.83;2.27;;;6.10;63.40;;;;;;5038401;28;20678;-84
2021/04/10 08:58:31;;;;;;;9.87;2.17;;;6.30;63.00;;;;;;5056226;28;20625;-85
2021/04/10 09:01:10;;;;;;;12.50;2.40;;;6.40;63.20;;;;;;5056179;28;20650;-85
2021/04/10 09:03:44;;;;;;;10.93;2.80;;;6.40;62.40;;;;;;5038349;28;20699;-85
2021/04/10 09:06:36;;;;;;;11.97;2.40;;;6.50;62.30;;;;;;5038319;28;20182;-85
2021/04/10 09:09:11;;;;;;;13.57;2.97;;;6.40;60.00;;;;;;5037983;28;20284;-85
2021/04/10 09:11:49;;;;;;;11.20;2.40;;;6.50;62.10;;;;;;5056303;28;20196;-85
2021/04/10 09:14:42;;;;;;;10.17;2.63;;;6.70;60.90;;;;;;5056136;28;20626;-85
2021/04/10 09:17:08;;;;;;;12.60;3.00;;;6.80;61.60;;;;;;5038180;28;20661;-85
2021/04/10 09:19:36;;;;;;;7.53;2.47;;;6.90;63.30;;;;;;5056088;28;20247;-85
2021/04/10 09:22:02;;;;;;;12.60;2.27;;;7.10;61.50;;;;;;5055881;28;20173;-85
2021/04/10 09:24:42;;;;;;;11.83;2.70;;;7.00;57.80;;;;;;5055764;28;20195;-85
2021/04/10 09:27:18;;;;;;;10.40;2.63;;;7.00;62.10;;;;;;5055692;28;20198;-85
2021/04/10 09:29:52;;;;;;;17.60;4.37;;;7.10;61.80;;;;;;5056036;28;20580;-85
2021/04/10 09:32:33;;;;;;;7.97;2.40;;;7.30;60.80;;;;;;5037983;28;20655;-86
2021/04/10 09:35:03;;;;;;;11.77;2.37;;;7.50;62.20;;;;;;5055966;28;20168;-85
2021/04/10 09:37:28;;;;;;;11.03;2.63;;;7.30;56.60;;;;;;5055600;28;20195;-85
2021/04/10 09:40:17;;;;;;;7.23;2.20;;;7.20;58.30;;;;;;5037586;28;20191;-85
2021/04/10 09:45:12;;;;;;;14.93;3.33;;;7.30;57.40;;;;;;5055539;28;20199;-85
2021/04/10 09:48:00;;;;;;;13.70;2.77;;;7.10;60.50;;;;;;5055153;28;20533;-84
2021/04/10 09:50:27;;;;;;;13.47;3.40;;;7.10;58.50;;;;;;5037509;28;20237;-84
2021/04/10 09:53:00;;;;;;;10.93;2.63;;;7.20;60.40;;;;;;5038188;28;20629;-85
2021/04/10 09:55:36;;;;;;;9.43;2.70;;;7.30;58.40;;;;;;5036474;28;20243;-84
2021/04/10 09:58:21;;;;;;;14.10;3.37;;;7.30;57.80;;;;;;5055100;28;20201;-85
2021/04/10 10:01:04;;;;;;;13.60;3.57;;;7.40;58.50;;;;;;5055149;28;20218;-85
2021/04/10 10:03:30;;;;;;;12.80;2.20;;;7.50;58.40;;;;;;5055004;28;20719;-85
2021/04/10 10:05:56;;;;;;;7.40;1.80;;;7.60;57.50;;;;;;5037029;28;20293;-85
2021/04/10 10:08:27;;;;;;;7.57;2.33;;;7.80;55.00;;;;;;5037143;28;20290;-85
2021/04/10 10:10:55;;;;;;;7.47;2.50;;;7.90;55.20;;;;;;5055341;28;20609;-85
2021/04/10 10:13:29;;;;;;;9.73;2.20;;;8.10;57.90;;;;;;5037072;28;20233;-85
2021/04/10 10:15:55;;;;;;;11.33;2.70;;;8.30;52.90;;;;;;5054949;28;20214;-85
2021/04/10 10:18:23;;;;;;;12.50;2.70;;;7.70;52.10;;;;;;5036780;28;20191;-85
2021/04/10 10:21:01;;;;;;;15.20;3.20;;;7.50;55.80;;;;;;5036887;28;20200;-85
2021/04/10 10:23:28;;;;;;;10.33;2.70;;;7.70;53.60;;;;;;5036894;28;20175;-85
2021/04/10 10:25:54;;;;;;;13.47;3.93;;;7.90;55.40;;;;;;5036654;28;20562;-85
2021/04/10 10:28:21;;;;;;;8.47;2.30;;;8.30;56.90;;;;;;5054564;28;20200;-85
2021/04/10 10:30:47;;;;;;;10.70;2.70;;;8.50;54.70;;;;;;5036632;28;20187;-85
2021/04/10 10:33:13;;;;;;;10.97;2.30;;;8.50;51.80;;;;;;5036641;28;20180;-85
2021/04/10 10:35:52;;;;;;;10.87;2.67;;;8.50;53.70;;;;;;5036680;28;20180;-85
2021/04/10 10:38:18;;;;;;;8.70;2.30;;;8.80;52.80;;;;;;5036762;28;20559;-85
2021/04/10 10:40:49;;;;;;;12.87;2.63;;;8.50;50.40;;;;;;5036655;28;20187;-85
2021/04/10 10:43:17;;;;;;;15.27;2.60;;;8.40;50.90;;;;;;5054418;28;20318;-85
2021/04/10 10:45:42;;;;;;;15.47;3.00;;;8.40;52.10;;;;;;5054088;28;20184;-85
2021/04/10 10:48:20;;;;;;;8.77;2.00;;;8.50;54.40;;;;;;5036177;28;20199;-84
2021/04/10 10:50:48;;;;;;;8.17;2.23;;;8.80;54.00;;;;;;5054464;28;20152;-85
2021/04/10 10:53:25;;;;;;;6.83;2.30;;;8.80;48.40;;;;;;5036382;28;20172;-85
2021/04/10 10:56:08;;;;;;;6.73;2.57;;;8.60;51.30;;;;;;5054392;28;20160;-85
2021/04/10 10:58:40;;;;;;;11.63;2.83;;;8.40;51.00;;;;;;5036135;28;20191;-85
2021/04/10 11:01:17;;;;;;;11.23;3.60;;;8.40;53.60;;;;;;5036163;28;20180;-85
2021/04/10 11:03:54;;;;;;;12.40;2.90;;;8.30;51.80;;;;;;5036179;28;20313;-85
2021/04/10 11:06:22;;;;;;;15.77;2.93;;;8.30;50.90;;;;;;5036085;28;20184;-86
2021/04/10 11:08:48;;;;;;;11.10;2.27;;;8.50;50.60;;;;;;5035936;28;20199;-85
2021/04/10 11:11:16;;;;;;;10.50;2.57;;;8.60;50.10;;;;;;5036124;28;20179;-85
2021/04/10 11:13:44;;;;;;;10.70;2.90;;;8.70;50.50;;;;;;5035819;28;20179;-85
2021/04/10 11:16:11;;;;;;;12.00;2.83;;;9.10;53.70;;;;;;5053666;28;20321;-86
2021/04/10 11:18:37;;;;;;;6.47;2.50;;;9.50;51.30;;;;;;5035849;28;20202;-85
2021/04/10 11:21:19;;;;;;;13.33;2.40;;;9.70;52.00;;;;;;5053710;28;20204;-85
2021/04/10 11:24:23;;;;;;;7.10;2.13;;;9.60;46.60;;;;;;5036056;28;20541;-85
2021/04/10 11:26:54;;;;;;;13.67;2.37;;;9.70;50.80;;;;;;5032064;28;20191;-85
2021/04/10 11:29:28;;;;;;;9.40;2.77;;;9.60;46.40;;;;;;5053412;28;20649;-86
2021/04/10 11:32:18;;;;;;;8.87;2.50;;;9.30;49.00;;;;;;5035728;28;20627;-85
2021/04/10 11:34:47;;;;;;;12.30;2.60;;;9.40;47.80;;;;;;5053403;28;20247;-85
2021/04/10 11:37:14;;;;;;;6.57;2.60;;;9.50;47.30;;;;;;5035794;28;20170;-85
2021/04/10 11:39:47;;;;;;;7.03;2.33;;;9.60;45.00;;;;;;5035433;28;20188;-85
2021/04/10 11:42:26;;;;;;;5.70;2.10;;;9.30;47.60;;;;;;5035416;28;20673;-85
2021/04/10 11:44:53;;;;;;;10.37;3.00;;;9.30;46.30;;;;;;5035550;28;20568;-86
2021/04/10 11:47:28;;;;;;;13.87;2.40;;;9.30;45.60;;;;;;5035797;28;20200;-85
2021/04/10 11:50:15;;;;;;;9.27;2.23;;;9.30;46.20;;;;;;5035473;28;20186;-85
2021/04/10 11:52:42;;;;;;;6.67;2.47;;;9.20;43.10;;;;;;5053589;28;20213;-85
2021/04/10 11:55:10;;;;;;;5.63;2.00;;;9.60;46.50;;;;;;5053152;28;20210;-86
2021/04/10 11:57:38;;;;;;;4.87;2.30;;;9.90;45.30;;;;;;5035225;28;20199;-85
2021/04/10 12:00:23;;;;;;;12.07;2.63;;;10.20;44.50;;;;;;5035307;28;20182;-85
2021/04/10 12:02:48;;;;;;;13.23;2.63;;;9.90;43.80;;;;;;5053505;28;20178;-85
2021/04/10 12:05:28;;;;;;;13.50;2.57;;;10.10;45.10;;;;;;5035326;28;20206;-85
2021/04/10 12:08:03;;;;;;;4.23;1.80;;;9.90;44.00;;;;;;5053447;28;20195;-86
2021/04/10 12:10:28;;;;;;;13.73;2.63;;;9.80;45.40;;;;;;5035184;28;20186;-85
2021/04/10 12:12:54;;;;;;;10.43;2.40;;;10.20;47.00;;;;;;5053108;28;20172;-85
2021/04/10 12:15:31;;;;;;;7.83;2.50;;;10.10;46.00;;;;;;5035042;28;20180;-85
2021/04/10 12:17:57;;;;;;;12.33;2.40;;;10.10;45.30;;;;;;5034937;28;20210;-86
2021/04/10 12:20:22;;;;;;;10.13;2.53;;;10.50;48.50;;;;;;5057039;28;20187;-85
2021/04/10 12:22:49;;;;;;;5.90;2.07;;;10.20;43.50;;;;;;5056749;28;20179;-85
2021/04/10 12:25:15;;;;;;;7.17;2.10;;;9.60;44.00;;;;;;5038976;28;20269;-85
2021/04/10 12:27:41;;;;;;;10.83;2.07;;;9.30;45.90;;;;;;5056846;28;20192;-85
2021/04/10 12:30:07;;;;;;;10.30;2.37;;;9.40;46.20;;;;;;5039121;28;20187;-86
2021/04/10 12:32:33;;;;;;;6.20;2.30;;;9.30;45.40;;;;;;5038910;28;20557;-85
2021/04/10 12:34:59;;;;;;;6.67;2.07;;;9.40;46.50;;;;;;5038925;28;20178;-85
2021/04/10 12:37:25;;;;;;;13.93;2.53;;;9.20;46.30;;;;;;5038928;28;20671;-85
2021/04/10 12:39:51;;;;;;;4.57;2.00;;;9.70;48.80;;;;;;5056414;28;20227;-85
2021/04/10 12:42:16;;;;;;;5.77;2.03;;;10.00;47.20;;;;;;5056582;28;20207;-85
2021/04/10 12:44:42;;;;;;;10.67;2.50;;;10.20;46.80;;;;;;5038667;28;20554;-85
2021/04/10 12:47:16;;;;;;;9.20;2.80;;;10.30;45.80;;;;;;5038620;28;20751;-84
2021/04/10 12:49:43;;;;;;;10.90;1.93;;;10.30;44.90;;;;;;5038577;28;20531;-85
2021/04/10 12:52:09;;;;;;;7.43;2.47;;;10.70;45.00;;;;;;5038610;28;20176;-85
2021/04/10 12:54:35;;;;;;;10.37;2.47;;;10.80;45.00;;;;;;5038586;28;20184;-86
2021/04/10 12:57:01;;;;;;;7.87;2.90;;;10.70;42.10;;;;;;5056317;28;20665;-86
2021/04/10 12:59:27;;;;;;;9.50;2.43;;;10.50;44.30;;;;;;5056277;28;20196;-85